Time;durP1;ratioP1;P1;durP2;ratioP2;P2;SDS_P1;SDS_P2;PMS_P1;PMS_P2;Temp;Humidity;BMP_temperature;BMP_pressure;BME280_temperature;BME280_humidity;BME280_pressure;Samples;Min_cycle;Max_cycle;Signal;HPM_P1;HPM_P2
2022/10/21 00:00:52;;;;;;;26.20;22.88;;;;;;;22.35;60.72;101469.28;5116114;28;20058;-87
2022/10/21 00:03:20;;;;;;;24.87;20.63;;;;;;;22.36;60.40;101479.06;5096692;28;20047;-88
2022/10/21 00:05:48;;;;;;;24.40;20.25;;;;;;;22.35;60.33;101485.47;5097461;28;20292;-87
2022/10/21 00:08:17;;;;;;;23.73;19.98;;;;;;;22.36;60.60;101484.47;5097364;28;20050;-88
2022/10/21 00:10:49;;;;;;;26.88;21.50;;;;;;;22.35;60.35;101486.31;5115169;28;20055;-87
2022/10/21 00:13:16;;;;;;;24.17;21.10;;;;;;;22.35;60.46;101493.56;5097494;28;20059;-88
2022/10/21 00:15:43;;;;;;;27.02;20.75;;;;;;;22.36;60.56;101492.56;5096956;28;20058;-87
2022/10/21 00:18:11;;;;;;;26.08;21.30;;;;;;;22.34;60.43;101497.25;5095975;28;20403;-88
2022/10/21 00:20:41;;;;;;;24.52;21.50;;;;;;;22.35;60.32;101498.94;5115198;28;20506;-87
2022/10/21 00:23:08;;;;;;;24.17;19.92;;;;;;;22.34;60.38;101499.94;5115033;28;20379;-87
2022/10/21 00:25:37;;;;;;;23.20;20.52;;;;;;;22.35;60.42;101502.50;5115209;28;20403;-87
2022/10/21 00:28:04;;;;;;;25.25;21.55;;;;;;;22.32;60.30;101507.31;5115249;28;20047;-88
2022/10/21 00:30:32;;;;;;;23.05;20.52;;;;;;;22.34;60.12;101503.50;5115866;28;20047;-88
2022/10/21 00:32:59;;;;;;;24.08;19.80;;;;;;;22.34;60.21;101506.19;5115048;28;20040;-88
2022/10/21 00:35:33;;;;;;;27.88;21.48;;;;;;;22.34;60.24;101505.34;5115000;28;20059;-88
2022/10/21 00:38:00;;;;;;;25.35;21.83;;;;;;;22.34;60.23;101510.75;5097077;28;20048;-88
2022/10/21 00:40:27;;;;;;;26.33;21.15;;;;;;;22.32;60.29;101501.91;5114602;28;20043;-88
2022/10/21 00:42:54;;;;;;;23.95;21.13;;;;;;;22.33;60.23;101496.41;5115213;28;20044;-87
2022/10/21 00:45:25;;;;;;;26.13;21.58;;;;;;;22.33;60.32;101499.09;5114391;28;20048;-84
2022/10/21 00:48:29;;;;;;;24.80;21.17;;;;;;;22.32;60.20;101497.41;5114792;28;20055;-87
2022/10/21 00:50:59;;;;;;;23.20;19.73;;;;;;;22.32;60.17;101504.59;5109025;28;20056;-86
2022/10/21 00:53:27;;;;;;;22.52;19.77;;;;;;;22.31;60.27;101503.75;5114288;28;20600;-86
2022/10/21 00:56:00;;;;;;;25.55;21.40;;;;;;;22.33;60.06;101496.41;5117482;28;20054;-85
2022/10/21 00:58:30;;;;;;;23.48;20.63;;;;;;;22.32;60.28;101492.00;5118171;28;20051;-86
2022/10/21 01:01:00;;;;;;;25.52;21.45;;;;;;;22.31;60.19;101479.47;5118685;28;20051;-86
2022/10/21 01:03:30;;;;;;;25.73;21.20;;;;;;;22.31;60.31;101482.19;5118288;28;20055;-85
2022/10/21 01:06:01;;;;;;;24.92;21.00;;;;;;;22.33;60.08;101496.41;5096606;28;20060;-85
2022/10/21 01:08:29;;;;;;;24.02;21.17;;;;;;;22.31;60.05;101500.22;5097794;28;20391;-85
2022/10/21 01:10:58;;;;;;;24.90;21.60;;;;;;;22.31;60.27;101500.22;5095801;28;20052;-85
2022/10/21 01:13:45;;;;;;;26.67;21.58;;;;;;;22.30;60.16;101503.91;5097590;28;20502;-86
2022/10/21 01:16:33;;;;;;;22.80;20.50;;;;;;;22.31;60.21;101506.44;5097778;28;20040;-86
2022/10/21 01:19:39;;;;;;;26.13;21.83;;;;;;;22.30;60.04;101509.31;5097459;28;20518;-86
2022/10/21 01:22:19;;;;;;;25.73;21.50;;;;;;;22.31;60.06;101502.91;5015545;28;20062;-86
2022/10/21 01:25:04;;;;;;;26.55;22.10;;;;;;;22.29;60.10;101499.50;4999078;28;20058;-86
2022/10/21 01:27:46;;;;;;;27.88;22.70;;;;;;;22.30;60.06;101493.13;5015482;28;20073;-85
2022/10/21 01:30:24;;;;;;;25.42;21.08;;;;;;;22.30;60.02;101482.31;5015160;28;20054;-85
2022/10/21 01:33:15;;;;;;;25.92;22.20;;;;;;;22.29;59.93;101476.06;5015220;28;20073;-85
2022/10/21 01:35:53;;;;;;;24.75;22.05;;;;;;;22.30;59.89;101479.63;5015330;28;20061;-86
2022/10/21 01:38:42;;;;;;;26.17;20.77;;;;;;;22.29;59.84;101475.22;5015465;28;20053;-86
2022/10/21 01:41:37;;;;;;;24.85;20.98;;;;;;;22.30;60.06;101483.19;5015333;28;20061;-87
2022/10/21 01:44:26;;;;;;;28.75;21.00;;;;;;;22.29;60.01;101477.94;5015616;28;20050;-87
2022/10/21 01:46:59;;;;;;;24.02;20.05;;;;;;;22.28;60.00;101473.50;5015294;28;20065;-90
2022/10/21 01:49:35;;;;;;;26.58;21.52;;;;;;;22.28;59.92;101468.09;5015624;28;20057;-86
2022/10/21 01:52:05;;;;;;;22.98;19.77;;;;;;;22.29;60.05;101472.53;5015706;28;20062;-88
2022/10/21 01:54:39;;;;;;;26.58;21.63;;;;;;;22.28;59.91;101465.41;4999015;28;20050;-89
2022/10/21 01:57:08;;;;;;;27.30;22.25;;;;;;;22.28;59.84;101462.72;4999216;28;20429;-87
2022/10/21 01:59:38;;;;;;;23.13;20.08;;;;;;;22.27;59.79;101461.00;5066786;28;20052;-86
2022/10/21 02:02:08;;;;;;;25.38;21.42;;;;;;;22.28;59.97;101462.72;5096940;28;20491;-85
2022/10/21 02:04:40;;;;;;;25.77;20.63;;;;;;;22.27;59.93;101459.16;5096497;28;20054;-85
2022/10/21 02:07:07;;;;;;;22.85;20.40;;;;;;;22.28;59.91;101470.81;5110438;28;20051;-85
2022/10/21 02:09:35;;;;;;;23.77;21.02;;;;;;;22.27;59.85;101466.41;5116902;28;20035;-85
2022/10/21 02:12:04;;;;;;;24.65;21.83;;;;;;;22.27;59.91;101461.84;5117041;28;20117;-85
2022/10/21 02:14:38;;;;;;;27.35;22.10;;;;;;;22.26;59.86;101454.75;5117154;28;20043;-86
2022/10/21 02:17:09;;;;;;;22.63;20.23;;;;;;;22.26;59.79;101451.22;5098868;28;20052;-86
2022/10/21 02:19:37;;;;;;;23.42;20.95;;;;;;;22.26;59.81;101437.72;5116786;28;20046;-86
2022/10/21 02:22:06;;;;;;;27.08;21.88;;;;;;;22.27;59.82;101429.50;5097987;28;20051;-86
2022/10/21 02:25:24;;;;;;;26.63;20.98;;;;;;;22.27;59.85;101436.72;5116537;28;20062;-86
2022/10/21 02:27:52;;;;;;;22.60;20.20;;;;;;;22.26;59.69;101438.59;5034410;28;20054;-87
2022/10/21 02:30:20;;;;;;;24.42;21.40;;;;;;;22.26;59.89;101429.63;5034530;28;20049;-87
2022/10/21 02:32:50;;;;;;;26.70;20.45;;;;;;;22.25;59.99;101434.19;5034331;28;20061;-87
2022/10/21 02:35:26;;;;;;;24.05;20.48;;;;;;;22.25;59.91;101441.44;5033939;28;20424;-85
2022/10/21 02:38:13;;;;;;;24.60;21.10;;;;;;;22.25;59.84;101436.88;5033766;28;20096;-85
2022/10/21 02:40:48;;;;;;;23.42;20.27;;;;;;;22.25;59.90;101438.72;5033273;28;20425;-86
2022/10/21 02:43:19;;;;;;;23.85;21.33;;;;;;;22.25;59.80;101436.88;5016492;28;20060;-85
2022/10/21 02:45:47;;;;;;;23.55;20.85;;;;;;;22.24;59.86;101435.19;5033412;28;20069;-86
2022/10/21 02:48:15;;;;;;;22.88;19.70;;;;;;;22.24;59.76;101432.50;5033528;28;20060;-88
2022/10/21 02:50:42;;;;;;;24.17;21.17;;;;;;;22.24;59.67;101437.88;5033796;28;20046;-87
2022/10/21 02:53:12;;;;;;;21.42;19.13;;;;;;;22.24;59.78;101435.19;5016799;28;20049;-87
2022/10/21 02:55:39;;;;;;;22.92;20.25;;;;;;;22.24;59.90;101429.78;5033887;28;20083;-88
2022/10/21 02:58:06;;;;;;;26.85;22.55;;;;;;;22.25;59.66;101436.03;5044582;28;20062;-87
2022/10/21 03:00:33;;;;;;;23.45;19.98;;;;;;;22.24;59.67;101440.56;5116466;28;20399;-86
2022/10/21 03:03:01;;;;;;;25.27;21.17;;;;;;;22.23;59.80;101440.69;5116348;28;20054;-87
2022/10/21 03:05:28;;;;;;;26.15;21.23;;;;;;;22.25;59.68;101446.81;5115993;28;20047;-87
2022/10/21 03:07:55;;;;;;;21.92;19.65;;;;;;;22.22;59.66;101442.53;5116051;28;20043;-88
2022/10/21 03:10:23;;;;;;;23.50;20.52;;;;;;;22.23;59.65;101440.69;5116786;28;20395;-88
2022/10/21 03:12:50;;;;;;;22.02;19.55;;;;;;;22.24;59.71;101440.56;5097724;28;20051;-86
2022/10/21 03:15:17;;;;;;;23.90;20.83;;;;;;;22.23;59.64;101424.50;5115898;28;20050;-86
2022/10/21 03:17:46;;;;;;;24.58;20.15;;;;;;;22.23;59.52;101433.44;5115638;28;20048;-87
2022/10/21 03:20:13;;;;;;;25.23;20.05;;;;;;;22.21;59.85;101430.91;5080665;28;20044;-87
2022/10/21 03:22:41;;;;;;;21.65;18.60;;;;;;;22.22;59.65;101418.28;5116319;28;20054;-87
2022/10/21 03:25:09;;;;;;;25.27;21.67;;;;;;;22.23;59.79;101429.91;5115929;28;20376;-87
2022/10/21 03:27:36;;;;;;;23.75;20.75;;;;;;;22.19;59.69;101418.53;5098162;28;20047;-87
2022/10/21 03:30:05;;;;;;;23.42;20.92;;;;;;;22.22;59.53;101418.28;5097386;28;20052;-87
2022/10/21 03:32:32;;;;;;;24.00;20.27;;;;;;;22.22;59.53;101420.97;5115655;28;20545;-87
2022/10/21 03:35:00;;;;;;;23.80;20.00;;;;;;;22.22;59.54;101429.06;5115623;28;20052;-86
2022/10/21 03:37:27;;;;;;;27.33;20.48;;;;;;;22.22;59.50;101429.06;5115608;28;20050;-86
2022/10/21 03:39:54;;;;;;;24.58;20.33;;;;;;;22.20;59.69;101426.50;5097249;28;20051;-86
2022/10/21 03:42:21;;;;;;;23.45;19.50;;;;;;;22.20;59.44;101425.63;5096294;28;20056;-85
2022/10/21 03:44:49;;;;;;;21.65;19.35;;;;;;;22.21;59.67;101416.56;5115107;28;20043;-85
2022/10/21 03:47:16;;;;;;;21.75;19.45;;;;;;;22.19;59.51;101426.63;5114867;28;20059;-85
2022/10/21 03:49:43;;;;;;;25.15;19.83;;;;;;;22.20;59.54;101425.63;5114753;28;20403;-86
2022/10/21 03:52:10;;;;;;;23.48;20.38;;;;;;;22.20;59.58;101436.41;5096635;28;20051;-86
2022/10/21 03:54:38;;;;;;;24.83;20.48;;;;;;;22.19;59.38;101432.88;5115211;28;20039;-84
2022/10/21 03:57:05;;;;;;;22.67;19.40;;;;;;;22.21;59.50;101432.75;5097083;28;20055;-87
2022/10/21 03:59:32;;;;;;;22.98;18.65;;;;;;;22.20;59.61;101420.22;5115136;28;20050;-85
2022/10/21 04:02:00;;;;;;;22.70;20.05;;;;;;;22.20;59.45;101412.13;5115241;28;20051;-85
2022/10/21 04:04:27;;;;;;;21.70;19.40;;;;;;;22.20;59.67;101417.53;5115044;28;20059;-85
2022/10/21 04:06:54;;;;;;;22.85;20.08;;;;;;;22.19;59.54;101408.59;5115160;28;20059;-85
2022/10/21 04:09:22;;;;;;;21.23;18.92;;;;;;;22.19;59.59;101414.00;5096553;28;20051;-85
2022/10/21 04:11:49;;;;;;;22.98;19.70;;;;;;;22.20;59.65;101414.84;5095992;28;20047;-85
2022/10/21 04:14:16;;;;;;;21.88;19.13;;;;;;;22.20;59.75;101414.84;5114756;28;20397;-85
2022/10/21 04:16:43;;;;;;;21.50;18.80;;;;;;;22.19;59.69;101418.53;5114740;28;20608;-85
2022/10/21 04:19:17;;;;;;;20.52;18.33;;;;;;;22.19;59.49;101422.09;5114844;28;20051;-85
2022/10/21 04:21:45;;;;;;;20.80;18.13;;;;;;;22.18;59.69;101422.22;5096603;28;20054;-85
2022/10/21 04:24:13;;;;;;;22.08;18.17;;;;;;;22.18;59.59;101409.59;5096793;28;20059;-84
2022/10/21 04:26:43;;;;;;;22.33;18.23;;;;;;;22.17;59.57;101413.28;5114785;28;20043;-85
2022/10/21 04:29:10;;;;;;;23.77;19.15;;;;;;;22.18;59.57;101414.13;5115015;28;20040;-84
2022/10/21 04:31:38;;;;;;;21.75;19.02;;;;;;;22.19;59.67;101418.53;5118487;28;20055;-85
2022/10/21 04:34:05;;;;;;;20.35;18.05;;;;;;;22.18;59.63;101428.47;5118804;28;20372;-85
2022/10/21 04:36:32;;;;;;;23.30;19.20;;;;;;;22.17;59.72;101432.16;5101124;28;20044;-84
2022/10/21 04:38:59;;;;;;;22.08;18.70;;;;;;;22.18;59.62;101435.72;5100645;28;20047;-87
2022/10/21 04:41:27;;;;;;;21.42;18.50;;;;;;;22.18;59.67;101439.25;5083769;28;20514;-87
2022/10/21 04:43:54;;;;;;;22.95;19.35;;;;;;;22.17;59.71;101429.47;5119693;28;20047;-85
2022/10/21 04:46:21;;;;;;;22.13;17.85;;;;;;;22.18;59.74;101430.31;5119117;28;20050;-85
2022/10/21 04:48:49;;;;;;;23.73;18.38;;;;;;;22.17;59.69;101415.13;5118897;28;20384;-85
2022/10/21 04:51:16;;;;;;;23.67;18.02;;;;;;;22.17;59.64;101407.91;5099731;28;20050;-86
2022/10/21 04:53:43;;;;;;;20.30;17.35;;;;;;;22.16;59.74;101405.31;5118910;28;20055;-87
2022/10/21 04:56:11;;;;;;;20.65;17.48;;;;;;;22.17;59.74;101402.50;5118646;28;20047;-87
2022/10/21 04:58:38;;;;;;;20.20;18.10;;;;;;;22.17;59.86;101405.19;5100743;28;20043;-86
2022/10/21 05:01:05;;;;;;;21.60;18.33;;;;;;;22.17;59.76;101407.91;5100260;28;20051;-87
2022/10/21 05:03:33;;;;;;;19.02;16.52;;;;;;;22.17;59.74;101407.03;5118704;28;20051;-87
2022/10/21 05:06:00;;;;;;;18.35;16.40;;;;;;;22.17;59.80;101407.03;5118258;28;20391;-85
2022/10/21 05:08:28;;;;;;;21.10;17.42;;;;;;;22.16;59.79;101405.31;5118357;28;20506;-86
2022/10/21 05:10:58;;;;;;;19.75;17.27;;;;;;;22.16;59.75;101399.91;5118432;28;20044;-88
2022/10/21 05:13:26;;;;;;;19.80;16.58;;;;;;;22.15;59.70;101404.47;5118838;28;20384;-87
2022/10/21 05:16:02;;;;;;;20.00;17.40;;;;;;;22.16;59.81;101405.31;5118242;28;20050;-85
2022/10/21 05:18:30;;;;;;;20.73;16.58;;;;;;;22.16;59.85;101405.31;5118408;28;20047;-85
2022/10/21 05:20:57;;;;;;;19.50;16.95;;;;;;;22.17;59.82;101421.38;5118173;28;20054;-85
2022/10/21 05:23:25;;;;;;;21.17;17.60;;;;;;;22.16;59.84;101408.91;5099552;28;20055;-85
2022/10/21 05:25:53;;;;;;;21.08;16.50;;;;;;;22.14;59.86;101402.75;5117866;28;20403;-85
2022/10/21 05:28:21;;;;;;;20.25;17.45;;;;;;;22.16;59.84;101405.31;5117689;28;20051;-85
2022/10/21 05:30:48;;;;;;;19.83;17.17;;;;;;;22.15;59.84;101401.78;5117460;28;20113;-86
2022/10/21 05:33:16;;;;;;;18.75;15.95;;;;;;;22.16;59.72;101405.31;5118843;28;20059;-85
2022/10/21 05:35:43;;;;;;;20.58;17.38;;;;;;;22.15;59.68;101400.91;5117766;28;20052;-85
2022/10/21 05:38:10;;;;;;;21.20;17.00;;;;;;;22.15;59.74;101388.28;5117628;28;20044;-85
2022/10/21 05:40:38;;;;;;;18.98;16.60;;;;;;;22.15;59.72;101382.03;5116852;28;20042;-85
2022/10/21 05:43:05;;;;;;;18.05;15.73;;;;;;;22.16;59.83;101383.75;5099088;28;20040;-84
2022/10/21 05:45:32;;;;;;;17.15;15.35;;;;;;;22.13;59.80;101401.06;5098788;28;20514;-86
2022/10/21 05:48:00;;;;;;;17.63;15.50;;;;;;;22.14;59.85;101399.22;5117566;28;20043;-85
2022/10/21 05:50:27;;;;;;;20.65;16.05;;;;;;;22.15;59.92;101407.16;5117388;28;20387;-86
2022/10/21 05:52:57;;;;;;;15.85;14.23;;;;;;;22.14;59.89;101408.16;5117993;28;20047;-88
2022/10/21 05:55:24;;;;;;;17.83;15.02;;;;;;;22.13;59.96;101398.38;5118416;28;20052;-87
2022/10/21 05:57:52;;;;;;;18.15;14.63;;;;;;;22.14;59.81;101399.22;5118317;28;20047;-87
2022/10/21 06:00:19;;;;;;;17.90;15.90;;;;;;;22.13;59.78;101392.97;5099510;28;20043;-88
2022/10/21 06:02:47;;;;;;;17.90;16.00;;;;;;;22.14;59.87;101399.22;5117494;28;20043;-87
2022/10/21 06:05:14;;;;;;;17.95;15.10;;;;;;;22.13;59.89;101395.69;5117466;28;20406;-89
2022/10/21 06:07:41;;;;;;;17.38;14.52;;;;;;;22.13;59.94;101401.06;5079069;28;20145;-89
2022/10/21 06:10:10;;;;;;;16.63;14.93;;;;;;;22.12;60.06;101393.94;5097330;28;20055;-85
2022/10/21 06:12:38;;;;;;;18.02;15.43;;;;;;;22.13;60.04;101392.97;5096269;28;20051;-83
2022/10/21 06:15:06;;;;;;;17.73;14.30;;;;;;;22.13;59.99;101395.69;5096180;28;20052;-84
2022/10/21 06:17:33;;;;;;;16.30;14.57;;;;;;;22.13;60.16;101387.59;5096177;28;20044;-84
2022/10/21 06:20:01;;;;;;;14.52;12.88;;;;;;;22.13;60.08;101392.13;5096357;28;20044;-83
2022/10/21 06:22:28;;;;;;;16.15;14.45;;;;;;;22.13;60.16;101394.81;5095521;28;20039;-85
2022/10/21 06:24:55;;;;;;;19.40;15.48;;;;;;;22.12;60.16;101385.84;5096289;28;20055;-84
2022/10/21 06:27:23;;;;;;;18.42;15.77;;;;;;;22.13;60.16;101387.59;5096287;28;20048;-84
2022/10/21 06:29:50;;;;;;;16.40;14.48;;;;;;;22.12;60.34;101399.34;5094245;28;20052;-84
2022/10/21 06:32:17;;;;;;;16.55;14.75;;;;;;;22.11;60.15;101386.81;5094397;28;20052;-83
2022/10/21 06:34:45;;;;;;;19.48;16.02;;;;;;;22.13;60.12;101390.28;5096629;28;20062;-82
2022/10/21 06:37:12;;;;;;;21.27;19.05;;;;;;;22.13;60.08;101402.91;5096942;28;20399;-84
2022/10/21 06:39:39;;;;;;;24.70;19.92;;;;;;;22.13;59.86;101403.75;5097083;28;20475;-85
2022/10/21 06:42:06;;;;;;;23.95;19.75;;;;;;;22.13;59.85;101405.63;5096224;28;20396;-80
2022/10/21 06:44:39;;;;;;;;;;;;;;;22.11;59.70;101403.00;5106508;28;20043;-80
2022/10/21 06:47:08;;;;;;;16.88;15.05;;;;;;;22.13;59.95;101408.31;5117860;27;20635;-80
2022/10/21 06:49:35;;;;;;;22.00;18.90;;;;;;;22.12;59.89;101406.53;5106899;28;20533;-80
2022/10/21 06:52:03;;;;;;;17.92;15.90;;;;;;;22.12;60.06;101412.81;5104455;28;20040;-82
2022/10/21 06:54:31;;;;;;;21.92;15.88;;;;;;;22.13;60.00;101416.41;5095221;28;20052;-82
2022/10/21 06:56:58;;;;;;;17.23;15.38;;;;;;;22.12;60.04;101396.63;5105567;28;20070;-83
2022/10/21 06:59:25;;;;;;;19.23;15.73;;;;;;;22.11;60.13;101383.28;5093885;28;20049;-84
2022/10/21 07:01:53;;;;;;;20.40;15.30;;;;;;;22.13;60.11;101392.97;5094758;28;20036;-82
2022/10/21 07:04:28;;;;;;;16.38;14.65;;;;;;;22.14;59.88;101393.81;5095145;28;20052;-86
2022/10/21 07:06:55;;;;;;;15.52;13.88;;;;;;;22.14;60.03;101405.47;5105623;28;20407;-80
2022/10/21 07:09:23;;;;;;;18.40;14.70;;;;;;;22.13;60.05;101401.06;5115904;28;20050;-83
2022/10/21 07:11:50;;;;;;;21.48;14.82;;;;;;;22.14;60.21;101397.38;5098087;28;20506;-77
2022/10/21 07:14:18;;;;;;;17.58;14.30;;;;;;;22.15;60.00;101392.81;5097805;28;20044;-81
2022/10/21 07:16:46;;;;;;;21.85;16.85;;;;;;;22.14;59.81;101391.97;5115306;28;20039;-82
2022/10/21 07:19:13;;;;;;;17.20;15.20;;;;;;;22.13;59.95;101394.81;5114799;28;20044;-79
2022/10/21 07:21:41;;;;;;;17.00;14.63;;;;;;;22.13;60.10;101384.03;5115003;28;20046;-81
2022/10/21 07:24:09;;;;;;;15.07;13.50;;;;;;;22.13;59.87;101392.13;5115051;28;20395;-83
2022/10/21 07:26:36;;;;;;;16.13;14.27;;;;;;;22.13;59.83;101403.75;5114697;28;20066;-81
2022/10/21 07:29:05;;;;;;;24.02;18.52;;;;;;;22.13;59.26;101405.63;5115407;28;20043;-77
2022/10/21 07:31:35;;;;;;;27.13;21.42;;;;;;;22.09;58.92;101407.69;5115012;28;20494;-84
2022/10/21 07:34:04;;;;;;;39.92;26.33;;;;;;;22.06;58.70;101401.72;5096711;28;20051;-82
2022/10/21 07:36:37;;;;;;;34.90;25.58;;;;;;;21.98;58.65;101405.94;5114557;28;20039;-74
2022/10/21 07:39:12;;;;;;;32.60;25.55;;;;;;;21.96;58.82;101405.22;5097252;28;20048;-82
2022/10/21 07:41:46;;;;;;;31.92;25.33;;;;;;;21.93;59.06;101405.50;5119127;27;20050;-76
2022/10/21 07:44:13;;;;;;;38.22;27.02;;;;;;;21.90;59.06;101404.91;5115381;28;20051;-83
2022/10/21 07:46:43;;;;;;;36.30;26.80;;;;;;;21.88;59.18;101409.59;5115574;28;20044;-84
2022/10/21 07:49:11;;;;;;;42.28;29.08;;;;;;;21.87;59.03;101407.88;5131106;27;20050;-79
2022/10/21 07:51:44;;;;;;;41.13;29.77;;;;;;;21.82;59.26;101392.09;5134893;27;20039;-80
2022/10/21 07:54:13;;;;;;;37.45;28.10;;;;;;;21.82;59.57;101394.78;5116230;27;20047;-79
2022/10/21 07:56:44;;;;;;;38.08;31.02;;;;;;;21.81;59.59;101394.94;5100278;27;20054;-80
2022/10/21 07:59:12;;;;;;;41.63;30.73;;;;;;;21.79;59.61;101396.91;5116463;27;20040;-77
2022/10/21 08:01:42;;;;;;;41.05;29.23;;;;;;;21.76;59.67;101395.34;5134114;27;20035;-78
2022/10/21 08:04:13;;;;;;;28.55;24.02;;;;;;;21.77;60.14;101380.03;5135659;27;20466;-79
2022/10/21 08:06:41;;;;;;;30.75;21.88;;;;;;;21.79;60.42;101372.66;5135350;27;20368;-77
2022/10/21 08:09:08;;;;;;;25.10;19.58;;;;;;;21.81;60.48;101373.38;5117582;27;20058;-81
2022/10/21 08:11:36;;;;;;;21.25;17.83;;;;;;;21.83;60.57;101371.38;5136412;27;20043;-82
2022/10/21 08:14:08;;;;;;;22.20;16.95;;;;;;;21.85;60.65;101374.81;5136314;27;20035;-81
2022/10/21 08:16:35;;;;;;;21.13;16.27;;;;;;;21.86;60.55;101369.28;5135797;27;20046;-82
2022/10/21 08:19:04;;;;;;;19.83;16.33;;;;;;;21.88;60.76;101372.72;5135648;28;20402;-81
2022/10/21 08:21:31;;;;;;;16.77;14.30;;;;;;;21.89;60.59;101377.09;5136155;28;20047;-81
2022/10/21 08:24:01;;;;;;;23.35;15.57;;;;;;;21.90;60.61;101388.72;5135922;28;20047;-81
2022/10/21 08:26:29;;;;;;;16.40;13.77;;;;;;;21.90;60.50;101394.97;5136547;28;20047;-81
2022/10/21 08:28:56;;;;;;;18.20;13.73;;;;;;;21.92;60.25;101397.56;5135349;28;20054;-81
2022/10/21 08:31:24;;;;;;;18.08;15.10;;;;;;;21.91;60.29;101388.59;5118095;28;20382;-81
2022/10/21 08:33:51;;;;;;;17.27;13.52;;;;;;;21.93;60.54;101393.84;5135183;28;20039;-82
2022/10/21 08:36:24;;;;;;;16.88;13.93;;;;;;;21.93;60.29;101402.78;5135773;28;20055;-81
2022/10/21 08:38:52;;;;;;;15.73;13.93;;;;;;;21.95;60.30;101399.94;5117105;28;20070;-81
2022/10/21 08:41:28;;;;;;;16.88;13.65;;;;;;;21.94;60.25;101400.94;5136005;28;20043;-82
2022/10/21 08:44:03;;;;;;;16.73;13.57;;;;;;;21.94;60.31;101400.94;5135593;28;20047;-82
2022/10/21 08:46:37;;;;;;;17.52;13.65;;;;;;;21.94;60.22;101407.19;5135085;28;20054;-82
2022/10/21 08:49:31;;;;;;;15.73;12.38;;;;;;;21.95;60.23;101405.34;5134979;28;20376;-82
2022/10/21 08:52:10;;;;;;;15.25;12.45;;;;;;;21.94;60.19;101407.19;5116145;28;20047;-82
2022/10/21 08:54:53;;;;;;;15.60;12.60;;;;;;;21.94;60.07;101407.19;5135555;28;20047;-81
2022/10/21 08:57:21;;;;;;;16.50;13.75;;;;;;;21.95;60.15;101398.09;5135552;28;20051;-82
2022/10/21 08:59:49;;;;;;;16.38;12.82;;;;;;;21.95;60.31;101392.72;5135468;28;20049;-82
2022/10/21 09:02:25;;;;;;;14.40;12.90;;;;;;;21.96;59.99;101399.84;5134685;28;20043;-82
2022/10/21 09:05:08;;;;;;;14.18;12.57;;;;;;;21.96;60.10;101388.19;5135557;28;20043;-82
2022/10/21 09:08:05;;;;;;;14.55;12.60;;;;;;;21.95;59.98;101395.41;5115947;28;20059;-82
2022/10/21 09:10:56;;;;;;;14.75;12.98;;;;;;;21.96;60.02;101401.69;5134933;28;20039;-82
2022/10/21 09:13:55;;;;;;;15.32;11.65;;;;;;;21.96;60.06;101410.63;5135390;28;20059;-81
2022/10/21 09:16:32;;;;;;;14.25;12.73;;;;;;;21.97;60.07;101414.16;5136817;27;20050;-82
2022/10/21 09:19:14;;;;;;;12.57;11.10;;;;;;;21.95;59.88;101408.88;5139186;27;20047;-81
2022/10/21 09:21:57;;;;;;;13.83;12.43;;;;;;;21.96;59.92;101407.94;5139495;27;20379;-82
2022/10/21 09:24:56;;;;;;;13.32;11.93;;;;;;;21.96;59.96;101412.47;5139370;27;20478;-82
2022/10/21 09:27:23;;;;;;;13.80;12.10;;;;;;;21.95;59.87;101408.88;5119574;27;20062;-82
2022/10/21 09:30:01;;;;;;;13.95;11.35;;;;;;;21.97;59.94;101422.25;5119827;27;20059;-82
2022/10/21 09:32:33;;;;;;;13.88;11.13;;;;;;;21.96;59.99;101410.63;5138600;27;20043;-82
2022/10/21 09:35:16;;;;;;;12.48;10.65;;;;;;;21.96;59.92;101412.47;5121012;27;20051;-82
2022/10/21 09:37:48;;;;;;;14.70;11.85;;;;;;;21.96;60.06;101412.47;5138546;27;20050;-82
2022/10/21 09:40:22;;;;;;;14.52;12.43;;;;;;;21.96;60.00;101402.53;5139417;27;20474;-81
2022/10/21 09:42:54;;;;;;;12.55;11.35;;;;;;;21.96;59.98;101409.78;5139028;27;20039;-81
2022/10/21 09:45:39;;;;;;;13.45;12.02;;;;;;;21.95;59.98;101406.19;5138404;27;20047;-82
2022/10/21 09:48:19;;;;;;;14.60;11.27;;;;;;;21.96;60.07;101410.63;5138856;27;20047;-81
2022/10/21 09:50:57;;;;;;;13.10;11.18;;;;;;;21.96;60.00;101416.00;5138300;27;20047;-81
2022/10/21 09:53:30;;;;;;;12.98;11.25;;;;;;;21.96;60.04;101404.38;5138346;27;20043;-81
2022/10/21 09:56:05;;;;;;;;;;;;;;;21.97;59.99;101395.28;5138376;27;20054;-81
2022/10/21 09:58:35;;;;;;;13.77;12.15;;;;;;;21.95;59.93;101398.09;5118966;27;19930;-82
2022/10/21 10:01:05;;;;;;;12.23;10.48;;;;;;;21.97;59.91;101414.16;5137758;27;20398;-81
2022/10/21 10:03:41;;;;;;;12.40;10.77;;;;;;;21.96;60.04;101407.06;5138544;27;20039;-81
2022/10/21 10:06:08;;;;;;;13.57;11.48;;;;;;;21.97;59.98;101422.25;5118626;27;20059;-81
2022/10/21 10:08:37;;;;;;;12.90;11.60;;;;;;;21.96;59.92;101424.09;5137989;27;20039;-82
2022/10/21 10:11:08;;;;;;;12.27;10.05;;;;;;;21.95;59.99;101416.13;5138023;27;20054;-81
2022/10/21 10:13:39;;;;;;;13.57;11.45;;;;;;;21.96;59.90;101417.84;5138412;27;20039;-81
2022/10/21 10:16:29;;;;;;;12.70;10.95;;;;;;;21.96;59.94;101415.16;5137438;27;20043;-81
2022/10/21 10:19:14;;;;;;;11.70;10.50;;;;;;;21.96;59.91;101407.06;5138508;27;20463;-82
2022/10/21 10:21:42;;;;;;;12.63;11.25;;;;;;;21.96;59.89;101405.22;5137507;27;20047;-81
2022/10/21 10:24:20;;;;;;;11.65;10.43;;;;;;;21.96;60.03;101388.19;5137758;27;20047;-82
2022/10/21 10:26:48;;;;;;;13.32;11.23;;;;;;;21.96;59.92;101378.28;5137550;27;20043;-81
2022/10/21 10:29:26;;;;;;;12.10;10.80;;;;;;;21.95;59.91;101389.16;5137152;27;20039;-81
2022/10/21 10:31:59;;;;;;;12.63;10.23;;;;;;;21.95;59.88;101398.09;5137649;27;20054;-81
2022/10/21 10:34:27;;;;;;;12.23;11.00;;;;;;;21.95;59.93;101373.84;5138012;27;20050;-81
2022/10/21 10:37:04;;;;;;;12.02;10.32;;;;;;;21.96;59.72;101374.72;5137220;27;20047;-81
2022/10/21 10:39:35;;;;;;;13.63;11.05;;;;;;;21.95;59.88;101359.50;5137624;27;20490;-81
2022/10/21 10:42:03;;;;;;;12.23;10.77;;;;;;;21.95;60.08;101354.13;5137427;27;20047;-82
2022/10/21 10:44:40;;;;;;;12.40;10.32;;;;;;;21.94;59.86;101336.25;5118203;27;20058;-81
2022/10/21 10:47:18;;;;;;;12.20;10.52;;;;;;;21.96;59.88;101339.69;5137608;27;20047;-81
2022/10/21 10:49:46;;;;;;;13.40;10.90;;;;;;;21.96;59.87;101339.69;5137530;27;20057;-82
2022/10/21 10:52:21;;;;;;;12.45;10.10;;;;;;;21.95;59.99;101329.88;5136891;27;20490;-81
2022/10/21 10:55:10;;;;;;;13.68;11.35;;;;;;;21.96;59.93;101345.06;5137520;27;20043;-82
2022/10/21 10:57:41;;;;;;;14.05;11.90;;;;;;;21.94;59.99;101355.97;5118186;27;20414;-82
2022/10/21 11:00:25;;;;;;;13.02;11.25;;;;;;;21.94;59.93;101361.38;5137590;27;20047;-81
2022/10/21 11:03:01;;;;;;;12.80;11.27;;;;;;;21.94;59.95;101349.72;5137018;27;20054;-82
2022/10/21 11:05:35;;;;;;;14.27;11.38;;;;;;;21.94;59.99;101334.41;5119004;27;20054;-82
2022/10/21 11:08:12;;;;;;;12.32;11.02;;;;;;;21.94;59.89;101325.47;5136544;27;20051;-81
2022/10/21 11:10:45;;;;;;;12.52;10.77;;;;;;;21.93;59.85;101332.72;5136985;27;20054;-82
2022/10/21 11:13:18;;;;;;;11.50;10.15;;;;;;;21.94;59.96;101328.16;5136564;27;20043;-82
2022/10/21 11:15:54;;;;;;;12.07;10.77;;;;;;;21.95;59.92;101340.66;5136954;27;20050;-81
2022/10/21 11:18:27;;;;;;;12.35;10.98;;;;;;;21.95;59.91;101348.72;5118187;27;20550;-82
2022/10/21 11:21:39;;;;;;;11.98;10.65;;;;;;;21.94;59.96;101363.22;5136757;27;20058;-82
2022/10/21 11:24:23;;;;;;;10.93;9.82;;;;;;;21.93;59.91;101370.44;5033561;28;20057;-81
2022/10/21 11:27:13;;;;;;;13.38;10.63;;;;;;;21.94;59.96;101374.00;5033996;28;20061;-81
2022/10/21 11:30:02;;;;;;;12.05;10.65;;;;;;;21.94;60.02;101384.78;5034153;28;20053;-81